PWSweather.com
Personal Weather Stations
Station Observations
WATERF01
WaterfordIE

WaterfordIE

Lat: 52.2412507, Lon: -7.1414691

Elevation: 65

Station Type: Davis Vantage Vue

www.waterfordweather.com

High Low Average
Temperature 43.5°F6.4°C 32.2°F0.1°C 37.5°F3.1°C
Dew Point 37.6°F3.1°C 31.7°F-0.2°C 34.7°F1.5°C
Winds 11.5 mph 18.5 kmh Calm Calm 2.0 mph S3.2 kmh S
Wind Gusts 19.6 mph31.5 kmh -- 5.0 mph8.0 kmh
Humidity 100% 67% 90%
Pressure 30.45 in1031.2 mb 30.28 in1025.4 mb -
Precipitation 0.00 in0.0 mm - -
Hour Temp Dew Point Humidity Winds Wind Gusts Pressure Precip Precip Rate Daily Precip Total
12:00 AM 36.4°F2.4°C 34.8°F1.6°C 94% 3.5 mph NNW5.6 kmh NNW 8.1 mph13.0 kmh 30.30 in1026.1 mb - 0.00 in0.0 mm 0.00 in0.0 mm
12:10 AM 36.4°F2.4°C 35.1°F1.7°C 95% 4.6 mph NNW7.4 kmh NNW 6.9 mph11.1 kmh 30.30 in1026.1 mb - 0.00 in0.0 mm 0.00 in0.0 mm
12:20 AM 36.6°F2.6°C 35.3°F1.8°C 95% 2.3 mph N3.7 kmh N 5.8 mph9.3 kmh 30.30 in1026.1 mb - 0.00 in0.0 mm 0.00 in0.0 mm
12:30 AM 36.6°F2.6°C 35.3°F1.8°C 95% 1.2 mph N1.9 kmh N 5.8 mph9.3 kmh 30.30 in1026.1 mb - 0.00 in0.0 mm 0.00 in0.0 mm
12:40 AM 36.5°F2.5°C 35.2°F1.8°C 95% 1.2 mph NW1.9 kmh NW 5.8 mph9.3 kmh 30.30 in1026.1 mb - 0.00 in0.0 mm 0.00 in0.0 mm
12:50 AM 36.6°F2.6°C 35.3°F1.8°C 95% Calm Calm 2.3 mph3.7 kmh 30.31 in1026.4 mb - 0.00 in0.0 mm 0.00 in0.0 mm
01:00 AM 36.6°F2.6°C 35.3°F1.8°C 95% 1.2 mph NNW1.9 kmh NNW 5.8 mph9.3 kmh 30.31 in1026.4 mb - 0.00 in0.0 mm 0.00 in0.0 mm
01:10 AM 36.6°F2.6°C 35.3°F1.8°C 95% 1.2 mph NNW1.9 kmh NNW 2.3 mph3.7 kmh 30.31 in1026.4 mb - 0.00 in0.0 mm 0.00 in0.0 mm
01:20 AM 36.6°F2.6°C 35.6°F2.0°C 96% 1.2 mph NNW1.9 kmh NNW 4.6 mph7.4 kmh 30.32 in1026.8 mb - 0.00 in0.0 mm 0.00 in0.0 mm
01:30 AM 36.5°F2.5°C 35.5°F1.9°C 96% 3.5 mph NW5.6 kmh NW 5.8 mph9.3 kmh 30.32 in1026.8 mb - 0.00 in0.0 mm 0.00 in0.0 mm
01:40 AM 36.3°F2.4°C 35.0°F1.7°C 95% 2.3 mph N3.7 kmh N 5.8 mph9.3 kmh 30.32 in1026.8 mb - 0.00 in0.0 mm 0.00 in0.0 mm
01:50 AM 36.2°F2.3°C 34.9°F1.6°C 95% 2.3 mph NW3.7 kmh NW 5.8 mph9.3 kmh 30.33 in1027.1 mb - 0.00 in0.0 mm 0.00 in0.0 mm
02:00 AM 35.9°F2.2°C 34.9°F1.6°C 96% 3.5 mph NW5.6 kmh NW 5.8 mph9.3 kmh 30.33 in1027.1 mb - 0.00 in0.0 mm 0.00 in0.0 mm
02:10 AM 35.9°F2.2°C 34.9°F1.6°C 96% 3.5 mph NW5.6 kmh NW 8.1 mph13.0 kmh 30.33 in1027.1 mb - 0.00 in0.0 mm 0.00 in0.0 mm
02:20 AM 35.7°F2.1°C 34.7°F1.5°C 96% 2.3 mph NNW3.7 kmh NNW 8.1 mph13.0 kmh 30.33 in1027.1 mb - 0.00 in0.0 mm 0.00 in0.0 mm
02:30 AM 35.9°F2.2°C 34.9°F1.6°C 96% 3.5 mph NNW5.6 kmh NNW 5.8 mph9.3 kmh 30.34 in1027.4 mb - 0.00 in0.0 mm 0.00 in0.0 mm
02:40 AM 35.9°F2.2°C 34.9°F1.6°C 96% 3.5 mph NW5.6 kmh NW 6.9 mph11.1 kmh 30.34 in1027.4 mb - 0.00 in0.0 mm 0.00 in0.0 mm
02:50 AM 35.8°F2.1°C 34.8°F1.6°C 96% 3.5 mph NW5.6 kmh NW 5.8 mph9.3 kmh 30.34 in1027.4 mb - 0.00 in0.0 mm 0.00 in0.0 mm
03:00 AM 35.5°F1.9°C 34.5°F1.4°C 96% Calm Calm -- 30.35 in1027.8 mb - 0.00 in0.0 mm 0.00 in0.0 mm
03:10 AM 35.3°F1.8°C 34.3°F1.3°C 96% Calm Calm -- 30.35 in1027.8 mb - 0.00 in0.0 mm 0.00 in0.0 mm
03:20 AM 34.9°F1.6°C 33.9°F1.1°C 96% Calm Calm 2.3 mph3.7 kmh 30.35 in1027.8 mb - 0.00 in0.0 mm 0.00 in0.0 mm
03:30 AM 34.8°F1.6°C 34.0°F1.1°C 97% Calm Calm 4.6 mph7.4 kmh 30.35 in1027.8 mb - 0.00 in0.0 mm 0.00 in0.0 mm
03:40 AM 34.5°F1.4°C 34.0°F1.1°C 98% Calm Calm -- 30.35 in1027.8 mb - 0.00 in0.0 mm 0.00 in0.0 mm
03:50 AM 35.3°F1.8°C 35.0°F1.7°C 99% Calm Calm -- 30.35 in1027.8 mb - 0.00 in0.0 mm 0.00 in0.0 mm
04:00 AM 35.3°F1.8°C 35.0°F1.7°C 99% Calm Calm 2.3 mph3.7 kmh 30.35 in1027.8 mb - 0.00 in0.0 mm 0.00 in0.0 mm
04:10 AM 35.3°F1.8°C 35.1°F1.7°C 99% 1.2 mph NW1.9 kmh NW 5.8 mph9.3 kmh 30.35 in1027.8 mb - 0.00 in0.0 mm 0.00 in0.0 mm
04:20 AM 35.9°F2.2°C 35.6°F2.0°C 99% 2.3 mph NNW3.7 kmh NNW 5.8 mph9.3 kmh 30.35 in1027.8 mb - 0.00 in0.0 mm 0.00 in0.0 mm
04:30 AM 36.1°F2.3°C 35.3°F1.8°C 97% 5.8 mph NW9.3 kmh NW 8.1 mph13.0 kmh 30.35 in1027.8 mb - 0.00 in0.0 mm 0.00 in0.0 mm
04:40 AM 35.3°F1.8°C 34.3°F1.3°C 96% 3.5 mph NW5.6 kmh NW 5.8 mph9.3 kmh 30.35 in1027.8 mb - 0.00 in0.0 mm 0.00 in0.0 mm
04:50 AM 35.1°F1.7°C 33.8°F1.0°C 95% Calm Calm -- 30.36 in1028.1 mb - 0.00 in0.0 mm 0.00 in0.0 mm
05:00 AM 34.7°F1.5°C 33.9°F1.1°C 97% Calm Calm -- 30.35 in1027.8 mb - 0.00 in0.0 mm 0.00 in0.0 mm
05:10 AM 34.3°F1.3°C 33.8°F1.0°C 98% 1.2 mph NNW1.9 kmh NNW -- 30.36 in1028.1 mb - 0.00 in0.0 mm 0.00 in0.0 mm
05:20 AM 34.3°F1.3°C 33.8°F1.0°C 98% Calm Calm -- 30.36 in1028.1 mb - 0.00 in0.0 mm 0.00 in0.0 mm
05:30 AM 34.8°F1.6°C 34.3°F1.3°C 98% Calm Calm -- 30.36 in1028.1 mb - 0.00 in0.0 mm 0.00 in0.0 mm
05:40 AM 34.7°F1.5°C 34.4°F1.3°C 99% 3.5 mph NNW5.6 kmh NNW 5.8 mph9.3 kmh 30.37 in1028.4 mb - 0.00 in0.0 mm 0.00 in0.0 mm
05:50 AM 34.4°F1.3°C 34.1°F1.2°C 99% 1.2 mph NW1.9 kmh NW 5.8 mph9.3 kmh 30.37 in1028.4 mb - 0.00 in0.0 mm 0.00 in0.0 mm
06:00 AM 34.2°F1.2°C 33.7°F0.9°C 98% Calm Calm -- 30.37 in1028.4 mb - 0.00 in0.0 mm 0.00 in0.0 mm
06:10 AM 34.4°F1.3°C 34.2°F1.2°C 99% Calm Calm -- 30.37 in1028.4 mb - 0.00 in0.0 mm 0.00 in0.0 mm
06:20 AM 33.7°F0.9°C 33.5°F0.8°C 99% Calm Calm -- 30.38 in1028.8 mb - 0.00 in0.0 mm 0.00 in0.0 mm
06:30 AM 32.2°F0.1°C 31.7°F-0.2°C 98% 2.3 mph NW3.7 kmh NW 2.3 mph3.7 kmh 30.38 in1028.8 mb - 0.00 in0.0 mm 0.00 in0.0 mm
06:40 AM 32.9°F0.5°C 32.7°F0.4°C 99% Calm Calm -- 30.38 in1028.8 mb - 0.00 in0.0 mm 0.00 in0.0 mm
06:50 AM 34.0°F1.1°C 34.0°F1.1°C 100% Calm Calm 1.2 mph1.9 kmh 30.39 in1029.1 mb - 0.00 in0.0 mm 0.00 in0.0 mm
07:00 AM 34.4°F1.3°C 34.4°F1.3°C 100% Calm Calm 2.3 mph3.7 kmh 30.39 in1029.1 mb - 0.00 in0.0 mm 0.00 in0.0 mm
07:10 AM 34.6°F1.4°C 34.6°F1.4°C 100% 2.3 mph N3.7 kmh N 5.8 mph9.3 kmh 30.39 in1029.1 mb - 0.00 in0.0 mm 0.00 in0.0 mm
07:20 AM 35.3°F1.8°C 35.3°F1.8°C 100% Calm Calm 2.3 mph3.7 kmh 30.39 in1029.1 mb - 0.00 in0.0 mm 0.00 in0.0 mm
07:30 AM 35.6°F2.0°C 35.6°F2.0°C 100% Calm Calm 4.6 mph7.4 kmh 30.39 in1029.1 mb - 0.00 in0.0 mm 0.00 in0.0 mm
07:40 AM 35.5°F1.9°C 35.2°F1.8°C 99% 1.2 mph NW1.9 kmh NW 5.8 mph9.3 kmh 30.39 in1029.1 mb - 0.00 in0.0 mm 0.00 in0.0 mm
07:50 AM 35.6°F2.0°C 35.4°F1.9°C 99% 2.3 mph NNW3.7 kmh NNW 8.1 mph13.0 kmh 30.40 in1029.5 mb - 0.00 in0.0 mm 0.00 in0.0 mm
08:00 AM 36.2°F2.3°C 35.6°F2.0°C 98% 1.2 mph NNW1.9 kmh NNW 2.3 mph3.7 kmh 30.40 in1029.5 mb - 0.00 in0.0 mm 0.00 in0.0 mm
08:10 AM 36.5°F2.5°C 36.0°F2.2°C 98% 1.2 mph NNW1.9 kmh NNW 1.2 mph1.9 kmh 30.40 in1029.5 mb - 0.00 in0.0 mm 0.00 in0.0 mm
08:20 AM 36.7°F2.6°C 36.2°F2.3°C 98% 1.2 mph NW1.9 kmh NW 2.3 mph3.7 kmh 30.41 in1029.8 mb - 0.00 in0.0 mm 0.00 in0.0 mm
08:30 AM 36.5°F2.5°C 35.7°F2.1°C 97% 1.2 mph N1.9 kmh N 2.3 mph3.7 kmh 30.41 in1029.8 mb - 0.00 in0.0 mm 0.00 in0.0 mm
08:40 AM 36.5°F2.5°C 36.0°F2.2°C 98% 2.3 mph NNW3.7 kmh NNW 5.8 mph9.3 kmh 30.41 in1029.8 mb - 0.00 in0.0 mm 0.00 in0.0 mm
08:50 AM 36.9°F2.7°C 35.9°F2.2°C 96% Calm Calm -- 30.42 in1030.1 mb - 0.00 in0.0 mm 0.00 in0.0 mm
09:00 AM 36.6°F2.6°C 35.6°F2.0°C 96% Calm Calm 2.3 mph3.7 kmh 30.42 in1030.1 mb - 0.00 in0.0 mm 0.00 in0.0 mm
09:10 AM 36.6°F2.6°C 35.8°F2.1°C 97% Calm Calm 1.2 mph1.9 kmh 30.42 in1030.1 mb - 0.00 in0.0 mm 0.00 in0.0 mm
09:20 AM 36.6°F2.6°C 35.8°F2.1°C 97% Calm Calm -- 30.42 in1030.1 mb - 0.00 in0.0 mm 0.00 in0.0 mm
09:30 AM 36.7°F2.6°C 36.2°F2.3°C 98% 1.2 mph NNW1.9 kmh NNW 2.3 mph3.7 kmh 30.43 in1030.5 mb - 0.00 in0.0 mm 0.00 in0.0 mm
09:40 AM 37.4°F3.0°C 36.6°F2.6°C 97% 1.2 mph NNW1.9 kmh NNW 6.9 mph11.1 kmh 30.42 in1030.1 mb - 0.00 in0.0 mm 0.00 in0.0 mm
09:50 AM 37.8°F3.2°C 36.8°F2.7°C 96% 1.2 mph NNW1.9 kmh NNW 2.3 mph3.7 kmh 30.43 in1030.5 mb - 0.00 in0.0 mm 0.00 in0.0 mm
10:00 AM 37.7°F3.2°C 36.4°F2.4°C 95% Calm Calm 2.3 mph3.7 kmh 30.43 in1030.5 mb - 0.00 in0.0 mm 0.00 in0.0 mm
10:10 AM 38.0°F3.3°C 36.7°F2.6°C 95% 1.2 mph W1.9 kmh W 2.3 mph3.7 kmh 30.43 in1030.5 mb - 0.00 in0.0 mm 0.00 in0.0 mm
10:20 AM 38.7°F3.7°C 37.2°F2.9°C 94% 1.2 mph SE1.9 kmh SE 4.6 mph7.4 kmh 30.44 in1030.8 mb - 0.00 in0.0 mm 0.00 in0.0 mm
10:30 AM 39.8°F4.3°C 37.6°F3.1°C 92% Calm Calm -- 30.45 in1031.2 mb - 0.00 in0.0 mm 0.00 in0.0 mm
10:40 AM 40.7°F4.8°C 37.4°F3.0°C 88% 1.2 mph E1.9 kmh E 2.3 mph3.7 kmh 30.45 in1031.2 mb - 0.00 in0.0 mm 0.00 in0.0 mm
10:50 AM 40.9°F4.9°C 36.7°F2.6°C 85% 1.2 mph SSW1.9 kmh SSW 5.8 mph9.3 kmh 30.44 in1030.8 mb - 0.00 in0.0 mm 0.00 in0.0 mm
11:00 AM 41.2°F5.1°C 37.3°F2.9°C 86% 1.2 mph E1.9 kmh E 4.6 mph7.4 kmh 30.44 in1030.8 mb - 0.00 in0.0 mm 0.00 in0.0 mm
11:10 AM 41.5°F5.3°C 37.3°F2.9°C 85% Calm Calm -- 30.43 in1030.5 mb - 0.00 in0.0 mm 0.00 in0.0 mm
11:20 AM 41.7°F5.4°C 37.2°F2.9°C 84% 1.2 mph SSE1.9 kmh SSE 4.6 mph7.4 kmh 30.43 in1030.5 mb - 0.00 in0.0 mm 0.00 in0.0 mm
11:30 AM 41.9°F5.5°C 37.1°F2.8°C 83% 1.2 mph NE1.9 kmh NE 5.8 mph9.3 kmh 30.42 in1030.1 mb - 0.00 in0.0 mm 0.00 in0.0 mm
11:40 AM 42.3°F5.7°C 37.2°F2.9°C 82% 2.3 mph ENE3.7 kmh ENE 5.8 mph9.3 kmh 30.42 in1030.1 mb - 0.00 in0.0 mm 0.00 in0.0 mm
11:50 AM 42.4°F5.8°C 36.3°F2.4°C 79% 2.3 mph E3.7 kmh E 6.9 mph11.1 kmh 30.41 in1029.8 mb - 0.00 in0.0 mm 0.00 in0.0 mm
12:00 PM 42.4°F5.8°C 36.7°F2.6°C 80% 2.3 mph E3.7 kmh E 8.1 mph13.0 kmh 30.41 in1029.8 mb - 0.00 in0.0 mm 0.00 in0.0 mm
12:10 PM 42.6°F5.9°C 36.5°F2.5°C 79% 1.2 mph E1.9 kmh E 2.3 mph3.7 kmh 30.41 in1029.8 mb - 0.00 in0.0 mm 0.00 in0.0 mm
12:20 PM 42.9°F6.1°C 35.8°F2.1°C 76% 3.5 mph ENE5.6 kmh ENE 6.9 mph11.1 kmh 30.41 in1029.8 mb - 0.00 in0.0 mm 0.00 in0.0 mm
12:30 PM 43.3°F6.3°C 35.6°F2.0°C 74% 6.9 mph ENE11.1 kmh ENE 13.8 mph22.2 kmh 30.40 in1029.5 mb - 0.00 in0.0 mm 0.00 in0.0 mm
12:40 PM 43.3°F6.3°C 35.9°F2.2°C 75% 8.1 mph E13.0 kmh E 11.5 mph18.5 kmh 30.39 in1029.1 mb - 0.00 in0.0 mm 0.00 in0.0 mm
12:50 PM 43.4°F6.3°C 35.3°F1.8°C 73% 11.5 mph E18.5 kmh E 15.0 mph24.1 kmh 30.39 in1029.1 mb - 0.00 in0.0 mm 0.00 in0.0 mm
01:00 PM 43.4°F6.3°C 35.0°F1.7°C 72% 10.4 mph E16.7 kmh E 18.4 mph29.6 kmh 30.39 in1029.1 mb - 0.00 in0.0 mm 0.00 in0.0 mm
01:10 PM 43.5°F6.4°C 35.1°F1.7°C 72% 11.5 mph E18.5 kmh E 15.0 mph24.1 kmh 30.38 in1028.8 mb - 0.00 in0.0 mm 0.00 in0.0 mm
01:20 PM 43.5°F6.4°C 35.1°F1.7°C 72% 10.4 mph E16.7 kmh E 13.8 mph22.2 kmh 30.37 in1028.4 mb - 0.00 in0.0 mm 0.00 in0.0 mm
01:30 PM 43.4°F6.3°C 34.6°F1.4°C 71% 8.1 mph E13.0 kmh E 18.4 mph29.6 kmh 30.38 in1028.8 mb - 0.00 in0.0 mm 0.00 in0.0 mm
01:40 PM 43.5°F6.4°C 35.1°F1.7°C 72% 5.8 mph E9.3 kmh E 11.5 mph18.5 kmh 30.37 in1028.4 mb - 0.00 in0.0 mm 0.00 in0.0 mm
01:50 PM 43.5°F6.4°C 35.1°F1.7°C 72% 5.8 mph E9.3 kmh E 11.5 mph18.5 kmh 30.37 in1028.4 mb - 0.00 in0.0 mm 0.00 in0.0 mm
02:00 PM 43.3°F6.3°C 34.9°F1.6°C 72% 10.4 mph E16.7 kmh E 19.6 mph31.5 kmh 30.36 in1028.1 mb - 0.00 in0.0 mm 0.00 in0.0 mm
02:10 PM 43.1°F6.2°C 34.0°F1.1°C 70% 9.2 mph E14.8 kmh E 11.5 mph18.5 kmh 30.36 in1028.1 mb - 0.00 in0.0 mm 0.00 in0.0 mm
02:20 PM 43.2°F6.2°C 34.4°F1.3°C 71% 6.9 mph E11.1 kmh E 11.5 mph18.5 kmh 30.36 in1028.1 mb - 0.00 in0.0 mm 0.00 in0.0 mm
02:30 PM 43.2°F6.2°C 34.7°F1.5°C 72% 6.9 mph E11.1 kmh E 8.1 mph13.0 kmh 30.36 in1028.1 mb - 0.00 in0.0 mm 0.00 in0.0 mm
02:40 PM 43.3°F6.3°C 34.9°F1.6°C 72% 8.1 mph E13.0 kmh E 12.7 mph20.4 kmh 30.36 in1028.1 mb - 0.00 in0.0 mm 0.00 in0.0 mm
02:50 PM 43.1°F6.2°C 35.0°F1.7°C 73% 6.9 mph ENE11.1 kmh ENE 11.5 mph18.5 kmh 30.35 in1027.8 mb - 0.00 in0.0 mm 0.00 in0.0 mm
03:00 PM 42.8°F6.0°C 34.4°F1.3°C 72% 5.8 mph ESE9.3 kmh ESE 12.7 mph20.4 kmh 30.35 in1027.8 mb - 0.00 in0.0 mm 0.00 in0.0 mm
03:10 PM 42.6°F5.9°C 32.4°F0.2°C 67% 5.8 mph E9.3 kmh E 5.8 mph9.3 kmh 30.35 in1027.8 mb - 0.00 in0.0 mm 0.00 in0.0 mm
03:20 PM 42.4°F5.8°C 33.7°F0.9°C 71% 5.8 mph E9.3 kmh E 9.2 mph14.8 kmh 30.36 in1028.1 mb - 0.00 in0.0 mm 0.00 in0.0 mm
03:30 PM 42.1°F5.6°C 34.5°F1.4°C 74% 5.8 mph E9.3 kmh E 11.5 mph18.5 kmh 30.35 in1027.8 mb - 0.00 in0.0 mm 0.00 in0.0 mm
03:40 PM 41.9°F5.5°C 35.2°F1.8°C 77% 5.8 mph E9.3 kmh E 9.2 mph14.8 kmh 30.36 in1028.1 mb - 0.00 in0.0 mm 0.00 in0.0 mm
03:50 PM 41.5°F5.3°C 35.5°F1.9°C 79% 3.5 mph E5.6 kmh E 5.8 mph9.3 kmh 30.35 in1027.8 mb - 0.00 in0.0 mm 0.00 in0.0 mm
04:00 PM 41.2°F5.1°C 35.2°F1.8°C 79% 5.8 mph E9.3 kmh E 11.5 mph18.5 kmh 30.35 in1027.8 mb - 0.00 in0.0 mm 0.00 in0.0 mm
04:10 PM 40.9°F4.9°C 34.9°F1.6°C 79% 3.5 mph NE5.6 kmh NE 10.4 mph16.7 kmh 30.35 in1027.8 mb - 0.00 in0.0 mm 0.00 in0.0 mm
04:20 PM 40.6°F4.8°C 34.9°F1.6°C 80% Calm Calm -- 30.35 in1027.8 mb - 0.00 in0.0 mm 0.00 in0.0 mm
04:30 PM 40.2°F4.6°C 35.1°F1.7°C 82% Calm Calm 2.3 mph3.7 kmh 30.35 in1027.8 mb - 0.00 in0.0 mm 0.00 in0.0 mm
04:40 PM 39.7°F4.3°C 34.7°F1.5°C 82% 1.2 mph E1.9 kmh E 2.3 mph3.7 kmh 30.35 in1027.8 mb - 0.00 in0.0 mm 0.00 in0.0 mm
04:50 PM 39.3°F4.1°C 34.6°F1.4°C 83% 2.3 mph ENE3.7 kmh ENE 5.8 mph9.3 kmh 30.34 in1027.4 mb - 0.00 in0.0 mm 0.00 in0.0 mm
05:00 PM 38.9°F3.8°C 34.5°F1.4°C 84% 2.3 mph E3.7 kmh E 4.6 mph7.4 kmh 30.34 in1027.4 mb - 0.00 in0.0 mm 0.00 in0.0 mm
05:10 PM 38.7°F3.7°C 34.0°F1.1°C 83% Calm Calm 2.3 mph3.7 kmh 30.34 in1027.4 mb - 0.00 in0.0 mm 0.00 in0.0 mm
05:20 PM 38.3°F3.5°C 34.5°F1.4°C 86% Calm Calm -- 30.34 in1027.4 mb - 0.00 in0.0 mm 0.00 in0.0 mm
05:30 PM 38.0°F3.3°C 34.5°F1.4°C 87% Calm Calm -- 30.34 in1027.4 mb - 0.00 in0.0 mm 0.00 in0.0 mm
05:40 PM 37.9°F3.3°C 34.4°F1.3°C 87% 3.5 mph E5.6 kmh E 5.8 mph9.3 kmh 30.34 in1027.4 mb - 0.00 in0.0 mm 0.00 in0.0 mm
05:50 PM 37.6°F3.1°C 34.1°F1.2°C 87% 1.2 mph E1.9 kmh E 5.8 mph9.3 kmh 30.33 in1027.1 mb - 0.00 in0.0 mm 0.00 in0.0 mm
06:00 PM 37.3°F2.9°C 34.1°F1.2°C 88% 3.5 mph E5.6 kmh E 6.9 mph11.1 kmh 30.33 in1027.1 mb - 0.00 in0.0 mm 0.00 in0.0 mm
06:10 PM 37.1°F2.8°C 33.6°F0.9°C 87% 1.2 mph E1.9 kmh E 4.6 mph7.4 kmh 30.33 in1027.1 mb - 0.00 in0.0 mm 0.00 in0.0 mm
06:20 PM 36.9°F2.7°C 33.7°F0.9°C 88% 3.5 mph E5.6 kmh E 8.1 mph13.0 kmh 30.33 in1027.1 mb - 0.00 in0.0 mm 0.00 in0.0 mm
06:30 PM 36.7°F2.6°C 33.8°F1.0°C 89% 3.5 mph E5.6 kmh E 5.8 mph9.3 kmh 30.33 in1027.1 mb - 0.00 in0.0 mm 0.00 in0.0 mm
06:40 PM 36.5°F2.5°C 33.8°F1.0°C 90% Calm Calm -- 30.34 in1027.4 mb - 0.00 in0.0 mm 0.00 in0.0 mm
06:50 PM 36.3°F2.4°C 33.9°F1.1°C 91% Calm Calm 2.3 mph3.7 kmh 30.34 in1027.4 mb - 0.00 in0.0 mm 0.00 in0.0 mm
07:00 PM 36.3°F2.4°C 34.2°F1.2°C 92% Calm Calm -- 30.34 in1027.4 mb - 0.00 in0.0 mm 0.00 in0.0 mm
07:10 PM 36.1°F2.3°C 34.0°F1.1°C 92% Calm Calm 2.3 mph3.7 kmh 30.33 in1027.1 mb - 0.00 in0.0 mm 0.00 in0.0 mm
07:20 PM 36.1°F2.3°C 33.7°F0.9°C 91% Calm Calm -- 30.34 in1027.4 mb - 0.00 in0.0 mm 0.00 in0.0 mm
07:30 PM 36.0°F2.2°C 33.9°F1.1°C 92% Calm Calm -- 30.34 in1027.4 mb - 0.00 in0.0 mm 0.00 in0.0 mm
07:40 PM 35.7°F2.1°C 34.1°F1.2°C 94% Calm Calm -- 30.33 in1027.1 mb - 0.00 in0.0 mm 0.00 in0.0 mm
07:50 PM 35.6°F2.0°C 33.8°F1.0°C 93% Calm Calm -- 30.33 in1027.1 mb - 0.00 in0.0 mm 0.00 in0.0 mm
08:00 PM 35.4°F1.9°C 33.8°F1.0°C 94% Calm Calm 2.3 mph3.7 kmh 30.33 in1027.1 mb - 0.00 in0.0 mm 0.00 in0.0 mm
08:10 PM 35.2°F1.8°C 33.7°F0.9°C 94% Calm Calm -- 30.33 in1027.1 mb - 0.00 in0.0 mm 0.00 in0.0 mm
08:20 PM 35.1°F1.7°C 33.5°F0.8°C 94% Calm Calm -- 30.33 in1027.1 mb - 0.00 in0.0 mm 0.00 in0.0 mm
08:30 PM 34.9°F1.6°C 33.6°F0.9°C 95% Calm Calm -- 30.33 in1027.1 mb - 0.00 in0.0 mm 0.00 in0.0 mm
08:40 PM 34.9°F1.6°C 33.6°F0.9°C 95% Calm Calm -- 30.32 in1026.8 mb - 0.00 in0.0 mm 0.00 in0.0 mm
08:50 PM 35.0°F1.7°C 33.7°F0.9°C 95% Calm Calm -- 30.32 in1026.8 mb - 0.00 in0.0 mm 0.00 in0.0 mm
09:00 PM 35.1°F1.7°C 34.1°F1.2°C 96% Calm Calm -- 30.32 in1026.8 mb - 0.00 in0.0 mm 0.00 in0.0 mm
09:10 PM 35.2°F1.8°C 33.9°F1.1°C 95% Calm Calm -- 30.32 in1026.8 mb - 0.00 in0.0 mm 0.00 in0.0 mm
09:20 PM 35.2°F1.8°C 33.4°F0.8°C 93% Calm Calm 5.8 mph9.3 kmh 30.31 in1026.4 mb - 0.00 in0.0 mm 0.00 in0.0 mm
09:30 PM 35.1°F1.7°C 33.3°F0.7°C 93% Calm Calm 2.3 mph3.7 kmh 30.31 in1026.4 mb - 0.00 in0.0 mm 0.00 in0.0 mm
09:40 PM 35.0°F1.7°C 32.9°F0.5°C 92% 4.6 mph E7.4 kmh E 6.9 mph11.1 kmh 30.30 in1026.1 mb - 0.00 in0.0 mm 0.00 in0.0 mm
09:50 PM 35.1°F1.7°C 33.0°F0.6°C 92% 1.2 mph E1.9 kmh E 5.8 mph9.3 kmh 30.30 in1026.1 mb - 0.00 in0.0 mm 0.00 in0.0 mm
10:00 PM 35.0°F1.7°C 32.9°F0.5°C 92% 2.3 mph E3.7 kmh E 2.3 mph3.7 kmh 30.30 in1026.1 mb - 0.00 in0.0 mm 0.00 in0.0 mm
10:10 PM 34.9°F1.6°C 33.1°F0.6°C 93% 2.3 mph E3.7 kmh E 5.8 mph9.3 kmh 30.30 in1026.1 mb - 0.00 in0.0 mm 0.00 in0.0 mm
10:20 PM 34.6°F1.4°C 32.8°F0.4°C 93% 5.8 mph E9.3 kmh E 11.5 mph18.5 kmh 30.29 in1025.7 mb - 0.00 in0.0 mm 0.00 in0.0 mm
10:30 PM 34.5°F1.4°C 32.7°F0.4°C 93% 1.2 mph E1.9 kmh E 4.6 mph7.4 kmh 30.29 in1025.7 mb - 0.00 in0.0 mm 0.00 in0.0 mm
10:40 PM 34.5°F1.4°C 33.2°F0.7°C 95% 3.5 mph E5.6 kmh E 6.9 mph11.1 kmh 30.30 in1026.1 mb - 0.00 in0.0 mm 0.00 in0.0 mm
10:50 PM 34.7°F1.5°C 32.4°F0.2°C 91% 5.8 mph E9.3 kmh E 9.2 mph14.8 kmh 30.29 in1025.7 mb - 0.00 in0.0 mm 0.00 in0.0 mm
11:00 PM 34.7°F1.5°C 32.6°F0.3°C 92% 8.1 mph E13.0 kmh E 9.2 mph14.8 kmh 30.29 in1025.7 mb - 0.00 in0.0 mm 0.00 in0.0 mm
11:10 PM 34.8°F1.6°C 32.7°F0.4°C 92% 4.6 mph E7.4 kmh E 8.1 mph13.0 kmh 30.28 in1025.4 mb - 0.00 in0.0 mm 0.00 in0.0 mm
11:20 PM 35.1°F1.7°C 33.0°F0.6°C 92% 9.2 mph E14.8 kmh E 13.8 mph22.2 kmh 30.28 in1025.4 mb - 0.00 in0.0 mm 0.00 in0.0 mm
11:30 PM 35.2°F1.8°C 32.8°F0.4°C 91% 5.8 mph E9.3 kmh E 8.1 mph13.0 kmh 30.28 in1025.4 mb - 0.00 in0.0 mm 0.00 in0.0 mm
11:40 PM 35.1°F1.7°C 33.0°F0.6°C 92% 2.3 mph E3.7 kmh E 8.1 mph13.0 kmh 30.28 in1025.4 mb - 0.00 in0.0 mm 0.00 in0.0 mm
11:50 PM 34.8°F1.6°C 33.0°F0.6°C 93% 1.2 mph E1.9 kmh E 4.6 mph7.4 kmh 30.28 in1025.4 mb - 0.00 in0.0 mm 0.00 in0.0 mm